createdAt,value
2023-01-30T00:01:38.849Z,79.02
2023-01-30T00:05:11.577Z,79.02
2023-01-30T00:08:39.175Z,78.95
2023-01-30T00:12:08.333Z,79.12
2023-01-30T00:15:35.447Z,79.05
2023-01-30T00:19:03.345Z,79.07
2023-01-30T00:22:33.022Z,79.07
2023-01-30T00:26:00.786Z,79.01
2023-01-30T00:29:29.110Z,79.15
2023-01-30T00:33:01.381Z,79.09
2023-01-30T00:36:30.912Z,79.08
2023-01-30T00:40:00.269Z,79.02
2023-01-30T00:43:45.840Z,79.09
2023-01-30T00:47:17.957Z,79.06
2023-01-30T00:50:45.946Z,79.07
2023-01-30T00:54:17.507Z,79.03
2023-01-30T00:57:47.146Z,79.19
2023-01-30T01:01:14.486Z,79.16
2023-01-30T01:04:44.919Z,79.20
2023-01-30T01:08:12.419Z,79.06
2023-01-30T01:11:40.715Z,79.14
2023-01-30T01:15:11.186Z,79.19
2023-01-30T01:18:41.042Z,79.25
2023-01-30T01:22:10.555Z,79.16
2023-01-30T01:25:40.109Z,79.20
2023-01-30T01:29:07.523Z,79.18
2023-01-30T01:32:35.053Z,79.11
2023-01-30T01:36:03.678Z,79.25
2023-01-30T01:39:46.163Z,79.06
2023-01-30T01:43:25.285Z,79.08
2023-01-30T01:46:59.684Z,79.08
2023-01-30T01:50:32.776Z,79.19
2023-01-30T01:54:09.442Z,79.24
2023-01-30T01:57:43.877Z,79.21
2023-01-30T02:01:12.548Z,79.33
2023-01-30T02:05:00.301Z,79.14
2023-01-30T02:08:33.666Z,79.13
2023-01-30T02:12:05.116Z,79.18
2023-01-30T02:15:32.187Z,79.11
2023-01-30T02:18:59.947Z,79.18
2023-01-30T02:23:00.887Z,79.21
2023-01-30T02:26:53.823Z,79.13
2023-01-30T02:30:46.613Z,79.06
2023-01-30T02:34:33.337Z,79.08
2023-01-30T02:38:13.995Z,79.20
2023-01-30T02:41:51.002Z,79.10
2023-01-30T02:45:26.740Z,79.19
2023-01-30T02:49:01.082Z,79.15
2023-01-30T02:52:30.527Z,79.10
2023-01-30T02:55:57.947Z,79.02
2023-01-30T02:59:28.975Z,78.97
2023-01-30T03:03:35.459Z,79.04
2023-01-30T03:07:27.229Z,78.96
2023-01-30T03:11:02.797Z,79.02
2023-01-30T03:14:37.568Z,78.99
2023-01-30T03:18:06.079Z,78.97
2023-01-30T03:21:32.809Z,78.89
2023-01-30T03:25:00.312Z,78.93
2023-01-30T03:28:28.275Z,79.00
2023-01-30T03:31:55.367Z,78.94
2023-01-30T03:35:22.587Z,78.96
2023-01-30T03:38:49.685Z,79.01
2023-01-30T03:42:17.384Z,78.77
2023-01-30T03:45:46.173Z,78.86
2023-01-30T03:49:13.513Z,78.92
2023-01-30T03:52:40.930Z,78.95
2023-01-30T03:56:11.235Z,78.94
2023-01-30T03:59:38.942Z,78.88
2023-01-30T04:03:09.061Z,78.92
2023-01-30T04:06:39.530Z,79.02
2023-01-30T04:10:07.760Z,78.96
2023-01-30T04:13:34.618Z,78.94
2023-01-30T04:17:01.810Z,79.01
2023-01-30T04:20:52.579Z,78.99
2023-01-30T04:24:24.905Z,79.09
2023-01-30T04:27:52.359Z,79.08
2023-01-30T04:31:22.831Z,79.17
2023-01-30T04:35:05.175Z,79.27
2023-01-30T04:38:33.910Z,79.27
2023-01-30T04:42:04.091Z,79.23
2023-01-30T04:45:36.603Z,78.99
2023-01-30T04:49:03.687Z,79.12
2023-01-30T04:52:30.433Z,79.08
2023-01-30T04:55:58.464Z,79.11
2023-01-30T04:59:26.331Z,79.10
2023-01-30T05:02:56.256Z,79.03
2023-01-30T05:06:23.304Z,79.11
2023-01-30T05:09:50.200Z,79.20
2023-01-30T05:13:16.849Z,79.19
2023-01-30T05:16:44.203Z,79.09
2023-01-30T05:20:14.220Z,79.13
2023-01-30T05:23:41.508Z,79.08
2023-01-30T05:27:08.105Z,79.21
2023-01-30T05:30:35.057Z,79.18
2023-01-30T05:34:02.892Z,79.21
2023-01-30T05:37:30.100Z,79.16
2023-01-30T05:41:03.458Z,79.16
2023-01-30T05:44:30.396Z,79.24
2023-01-30T05:48:01.560Z,79.23
2023-01-30T05:51:30.290Z,79.21
2023-01-30T05:54:57.817Z,79.18
2023-01-30T05:58:25.243Z,79.38
2023-01-30T06:01:51.628Z,79.28
2023-01-30T06:05:19.800Z,79.34
2023-01-30T06:08:47.069Z,79.27
2023-01-30T06:12:14.458Z,79.38
2023-01-30T06:15:43.395Z,79.35
2023-01-30T06:19:11.491Z,79.21
2023-01-30T06:22:41.625Z,79.26
2023-01-30T06:26:09.390Z,79.40
2023-01-30T06:29:38.816Z,79.43
2023-01-30T06:33:05.556Z,79.39
2023-01-30T06:36:32.765Z,79.47
2023-01-30T06:39:59.390Z,79.30
2023-01-30T06:43:28.613Z,79.56
2023-01-30T06:46:56.116Z,79.58
2023-01-30T06:50:25.304Z,79.60
2023-01-30T06:53:53.306Z,79.47
2023-01-30T06:57:20.557Z,79.64
2023-01-30T07:00:47.107Z,79.99
2023-01-30T07:04:14.127Z,80.12
2023-01-30T07:07:41.413Z,80.05
2023-01-30T07:11:10.693Z,80.19
2023-01-30T07:14:38.133Z,80.12
2023-01-30T07:18:06.624Z,80.19
2023-01-30T07:21:33.614Z,80.09
2023-01-30T07:25:01.087Z,80.03
2023-01-30T07:28:29.236Z,80.10
2023-01-30T07:31:55.977Z,80.02
2023-01-30T07:35:23.828Z,80.20
2023-01-30T07:38:52.982Z,80.30
2023-01-30T07:42:19.818Z,80.03
2023-01-30T07:45:52.562Z,80.17
2023-01-30T07:49:20.433Z,80.15
2023-01-30T07:52:51.915Z,80.19
2023-01-30T07:56:20.770Z,80.16
2023-01-30T07:59:47.929Z,80.25
2023-01-30T08:03:17.940Z,80.12
2023-01-30T08:06:44.989Z,80.11
2023-01-30T08:10:15.302Z,80.18
2023-01-30T08:13:42.181Z,80.24
2023-01-30T08:17:08.844Z,80.11
2023-01-30T08:20:36.383Z,80.20
2023-01-30T08:24:03.128Z,80.38
2023-01-30T08:27:30.877Z,80.38
2023-01-30T08:30:58.419Z,80.31
2023-01-30T08:34:25.226Z,80.49
2023-01-30T08:37:51.856Z,80.30
2023-01-30T08:41:18.374Z,80.34
2023-01-30T08:44:45.165Z,80.45
2023-01-30T08:48:13.067Z,80.46
2023-01-30T08:51:39.988Z,80.30
2023-01-30T08:55:07.039Z,80.44
2023-01-30T08:58:33.729Z,80.38
2023-01-30T09:02:00.442Z,80.32
2023-01-30T09:05:31.223Z,80.26
2023-01-30T09:08:58.134Z,80.37
2023-01-30T09:12:25.539Z,80.48
2023-01-30T09:15:52.626Z,80.57
2023-01-30T09:19:20.037Z,80.43
2023-01-30T09:22:47.245Z,80.44
2023-01-30T09:26:16.758Z,80.52
2023-01-30T09:29:45.254Z,80.51
2023-01-30T09:33:30.320Z,80.55
2023-01-30T09:37:18.559Z,80.61
2023-01-30T09:41:15.829Z,80.52
2023-01-30T09:45:34.649Z,80.52
2023-01-30T09:49:29.693Z,80.53
2023-01-30T09:53:24.102Z,80.55
2023-01-30T09:57:23.963Z,80.37
2023-01-30T10:01:06.695Z,80.31
2023-01-30T10:04:38.106Z,80.35
2023-01-30T10:08:25.618Z,80.44
2023-01-30T10:12:04.752Z,80.47
2023-01-30T10:15:50.464Z,80.23
2023-01-30T10:19:38.038Z,80.12
2023-01-30T10:23:16.270Z,80.38
2023-01-30T10:26:43.925Z,80.51
2023-01-30T10:30:19.221Z,80.49
2023-01-30T10:33:55.988Z,80.65
2023-01-30T10:37:31.523Z,80.48
2023-01-30T10:41:02.910Z,80.55
2023-01-30T10:44:29.846Z,80.48
2023-01-30T10:48:11.574Z,80.58
2023-01-30T10:51:49.802Z,80.71
2023-01-30T10:55:36.409Z,80.91
2023-01-30T10:59:15.939Z,80.54
2023-01-30T11:02:55.157Z,80.78
2023-01-30T11:06:25.733Z,80.61
2023-01-30T11:09:52.672Z,80.31
2023-01-30T11:13:22.091Z,80.25
2023-01-30T11:16:53.039Z,80.30
2023-01-30T11:20:22.494Z,80.31
2023-01-30T11:23:51.252Z,80.23
2023-01-30T11:27:26.119Z,80.18
2023-01-30T11:30:58.878Z,80.44
2023-01-30T11:34:26.885Z,80.33
2023-01-30T11:37:54.918Z,80.32
2023-01-30T11:41:25.208Z,80.26
2023-01-30T11:45:16.098Z,80.33
2023-01-30T11:49:01.430Z,80.25
2023-01-30T11:52:40.210Z,80.46
2023-01-30T11:56:16.866Z,80.24
2023-01-30T11:59:48.077Z,80.25
2023-01-30T12:03:18.396Z,79.93
2023-01-30T12:06:46.658Z,79.65
2023-01-30T12:10:32.007Z,80.07
2023-01-30T12:14:10.475Z,79.83
2023-01-30T12:17:46.545Z,79.64
2023-01-30T12:21:22.165Z,79.56
2023-01-30T12:24:58.868Z,79.59
2023-01-30T12:28:35.459Z,79.41
2023-01-30T12:32:13.064Z,79.49
2023-01-30T12:35:55.286Z,79.53
2023-01-30T12:39:41.994Z,79.28
2023-01-30T12:43:29.925Z,79.93
2023-01-30T12:47:15.459Z,79.73
2023-01-30T12:50:58.542Z,79.86
2023-01-30T12:54:37.927Z,79.87
2023-01-30T12:58:15.651Z,79.45
2023-01-30T13:01:50.793Z,79.72
2023-01-30T13:05:35.000Z,79.55
2023-01-30T13:09:18.791Z,79.42
2023-01-30T13:12:52.911Z,79.53
2023-01-30T13:16:29.782Z,79.80
2023-01-30T13:20:04.482Z,79.47
2023-01-30T13:23:43.142Z,79.50
2023-01-30T13:27:16.766Z,79.71
2023-01-30T13:30:46.022Z,79.65
2023-01-30T13:34:23.699Z,79.34
2023-01-30T13:37:53.083Z,79.49
2023-01-30T13:41:23.567Z,79.52
2023-01-30T13:44:53.302Z,79.34
2023-01-30T13:48:34.884Z,79.26
2023-01-30T13:52:13.695Z,78.99
2023-01-30T13:55:49.668Z,78.88
2023-01-30T13:59:31.521Z,79.09
2023-01-30T14:03:24.674Z,79.08
2023-01-30T14:06:52.709Z,78.85
2023-01-30T14:10:24.104Z,79.31
2023-01-30T14:14:00.193Z,79.29
2023-01-30T14:17:27.840Z,79.26
2023-01-30T14:21:14.237Z,78.98
2023-01-30T14:24:41.198Z,79.47
2023-01-30T14:28:46.335Z,79.43
2023-01-30T14:32:53.703Z,79.17
2023-01-30T14:36:49.107Z,79.12
2023-01-30T14:40:41.153Z,79.29
2023-01-30T14:44:40.213Z,79.28
2023-01-30T14:48:37.748Z,79.19
2023-01-30T14:52:07.535Z,78.89
2023-01-30T14:55:34.537Z,79.36
2023-01-30T14:59:05.376Z,79.26
2023-01-30T15:02:36.164Z,79.41
2023-01-30T15:06:04.296Z,79.50
2023-01-30T15:09:33.348Z,79.20
2023-01-30T15:13:28.178Z,79.44
2023-01-30T15:17:12.590Z,79.43
2023-01-30T15:20:52.337Z,79.27
2023-01-30T15:24:45.202Z,79.16
2023-01-30T15:28:30.808Z,79.25
2023-01-30T15:32:02.428Z,79.08
2023-01-30T15:35:32.128Z,79.43
2023-01-30T15:39:06.444Z,79.20
2023-01-30T15:42:39.755Z,79.10
2023-01-30T15:46:18.548Z,79.51
2023-01-30T15:49:58.394Z,79.01
2023-01-30T15:53:31.469Z,79.01
2023-01-30T15:57:03.273Z,79.11
2023-01-30T16:00:38.701Z,79.02
2023-01-30T16:04:27.107Z,78.97
2023-01-30T16:07:58.093Z,79.13
2023-01-30T16:11:38.758Z,79.17
2023-01-30T16:15:19.362Z,79.24
2023-01-30T16:18:54.786Z,79.14
2023-01-30T16:22:24.644Z,79.26
2023-01-30T16:25:56.110Z,79.40
2023-01-30T16:29:27.267Z,79.14
2023-01-30T16:32:58.408Z,79.48
2023-01-30T16:36:40.307Z,79.22
2023-01-30T16:40:20.588Z,79.07
2023-01-30T16:43:48.858Z,79.52
2023-01-30T16:47:27.832Z,79.57
2023-01-30T16:51:20.302Z,79.30
2023-01-30T16:54:52.236Z,79.52
2023-01-30T16:58:20.829Z,79.13
2023-01-30T17:01:54.402Z,79.28
2023-01-30T17:05:27.164Z,79.35
2023-01-30T17:08:58.627Z,79.39
2023-01-30T17:12:50.950Z,79.33
2023-01-30T17:16:36.531Z,79.54
2023-01-30T17:20:04.226Z,79.53
2023-01-30T17:23:32.861Z,79.46
2023-01-30T17:27:04.279Z,79.42
2023-01-30T17:30:31.817Z,79.64
2023-01-30T17:33:59.591Z,79.39
2023-01-30T17:37:27.600Z,79.59
2023-01-30T17:40:54.858Z,79.47
2023-01-30T17:44:24.881Z,79.24
2023-01-30T17:47:51.640Z,79.45
2023-01-30T17:51:19.409Z,79.48
2023-01-30T17:54:46.488Z,79.20
2023-01-30T17:58:19.256Z,79.39
2023-01-30T18:01:48.109Z,79.46
2023-01-30T18:05:15.037Z,79.21
2023-01-30T18:08:42.281Z,79.40
2023-01-30T18:12:14.737Z,79.38
2023-01-30T18:15:49.320Z,79.43
2023-01-30T18:19:18.732Z,79.03
2023-01-30T18:22:46.737Z,79.37
2023-01-30T18:26:15.008Z,79.30
2023-01-30T18:29:43.989Z,79.31
2023-01-30T18:33:12.032Z,79.41
2023-01-30T18:36:41.804Z,79.63
2023-01-30T18:40:14.215Z,79.47
2023-01-30T18:43:42.820Z,79.51
2023-01-30T18:47:11.775Z,79.15
2023-01-30T18:50:40.100Z,79.19
2023-01-30T18:54:07.562Z,79.16
2023-01-30T18:57:35.018Z,78.81
2023-01-30T19:01:12.057Z,79.04
2023-01-30T19:04:39.692Z,79.09
2023-01-30T19:08:06.680Z,78.97
2023-01-30T19:11:51.618Z,79.28
2023-01-30T19:15:18.830Z,78.97
2023-01-30T19:18:45.764Z,79.04
2023-01-30T19:22:12.526Z,79.15
2023-01-30T19:25:40.149Z,79.19
2023-01-30T19:29:07.069Z,79.18
2023-01-30T19:32:35.000Z,79.48
2023-01-30T19:36:12.817Z,79.35
2023-01-30T19:39:39.831Z,79.21
2023-01-30T19:43:10.804Z,79.38
2023-01-30T19:46:38.617Z,79.33
2023-01-30T19:50:06.595Z,79.19
2023-01-30T19:53:33.788Z,79.56
2023-01-30T19:57:00.804Z,79.37
2023-01-30T20:00:28.595Z,79.41
2023-01-30T20:03:57.564Z,79.10
2023-01-30T20:07:24.429Z,79.40
2023-01-30T20:10:51.449Z,79.29
2023-01-30T20:14:19.615Z,79.33
2023-01-30T20:17:47.174Z,79.36
2023-01-30T20:21:17.242Z,79.11
2023-01-30T20:24:44.798Z,79.40
2023-01-30T20:28:11.497Z,79.16
2023-01-30T20:31:39.810Z,79.35
2023-01-30T20:35:08.066Z,79.38
2023-01-30T20:38:37.197Z,79.30
2023-01-30T20:42:06.422Z,79.44
2023-01-30T20:45:35.827Z,79.47
2023-01-30T20:49:23.188Z,79.48
2023-01-30T20:52:53.493Z,79.34
2023-01-30T20:56:27.703Z,79.31
2023-01-30T20:59:56.829Z,79.50
2023-01-30T21:03:27.552Z,79.42
2023-01-30T21:06:57.997Z,79.50
2023-01-30T21:10:28.457Z,79.29
2023-01-30T21:14:02.251Z,79.34
2023-01-30T21:17:32.668Z,79.52
2023-01-30T21:21:07.114Z,79.20
2023-01-30T21:24:36.733Z,79.32
2023-01-30T21:28:06.211Z,79.31
2023-01-30T21:31:38.020Z,79.04
2023-01-30T21:35:05.903Z,79.20
2023-01-30T21:38:55.890Z,79.25
2023-01-30T21:42:41.906Z,79.35
2023-01-30T21:46:18.896Z,79.08
2023-01-30T21:49:46.704Z,79.05
2023-01-30T21:53:19.859Z,79.32
2023-01-30T21:56:48.937Z,79.35
2023-01-30T22:00:19.702Z,79.48
2023-01-30T22:03:48.609Z,79.31
2023-01-30T22:07:19.905Z,79.37
2023-01-30T22:10:53.183Z,79.35
2023-01-30T22:14:23.272Z,79.12
2023-01-30T22:17:57.039Z,79.14
2023-01-30T22:21:26.442Z,79.05
2023-01-30T22:24:56.752Z,79.30
2023-01-30T22:28:31.238Z,79.12
2023-01-30T22:32:03.740Z,78.98
2023-01-30T22:35:35.025Z,79.09
2023-01-30T22:39:07.147Z,78.75
2023-01-30T22:42:38.312Z,78.88
2023-01-30T22:46:11.023Z,79.13
2023-01-30T22:49:38.218Z,78.91
2023-01-30T22:53:13.336Z,79.16
2023-01-30T22:56:43.201Z,78.78
2023-01-30T23:00:12.999Z,78.67
2023-01-30T23:03:48.730Z,78.96
2023-01-30T23:07:18.269Z,79.02
2023-01-30T23:10:46.667Z,78.97
2023-01-30T23:14:16.952Z,78.88
2023-01-30T23:18:09.948Z,78.86
2023-01-30T23:21:43.394Z,78.79
2023-01-30T23:25:12.933Z,78.85
2023-01-30T23:28:42.510Z,78.82
2023-01-30T23:32:10.780Z,78.62
2023-01-30T23:35:40.830Z,78.56
2023-01-30T23:39:14.861Z,78.48
2023-01-30T23:42:40.568Z,78.62
2023-01-30T23:46:22.678Z,78.62
2023-01-30T23:49:50.043Z,78.39
2023-01-30T23:53:22.390Z,78.36
2023-01-30T23:56:50.719Z,78.46
